Time;durP1;ratioP1;P1;durP2;ratioP2;P2;SDS_P1;SDS_P2;PMS_P1;PMS_P2;Temp;Humidity;BMP_temperature;BMP_pressure;BME280_temperature;BME280_humidity;BME280_pressure;Samples;Min_cycle;Max_cycle;Signal;HPM_P1;HPM_P2
2022/02/10 00:05:53;;;;;;;6.10;4.97;;;3.80;98.20;;;;;;5090450;28;20206;-87
2022/02/10 00:17:11;;;;;;;5.18;4.32;;;3.10;97.90;;;;;;5026967;28;20211;-87
2022/02/10 00:20:03;;;;;;;5.53;4.93;;;;;;;;;;5027865;28;20988;-86
2022/02/10 00:22:46;;;;;;;8.65;4.85;;;3.10;99.90;;;;;;5064383;28;20238;-87
2022/02/10 00:36:16;;;;;;;7.60;4.80;;;3.70;99.90;;;;;;5089740;28;20229;-87
2022/02/10 00:38:56;;;;;;;5.65;3.90;;;3.60;96.90;;;;;;5090483;28;20285;-87
2022/02/10 00:41:23;;;;;;;5.38;4.88;;;3.80;99.90;;;;;;5090455;28;20702;-87
2022/02/10 00:43:50;;;;;;;7.75;4.80;;;3.70;96.70;;;;;;5090311;28;20309;-87
2022/02/10 00:46:17;;;;;;;5.78;5.00;;;3.70;96.70;;;;;;5089955;28;20214;-87
2022/02/10 00:48:46;;;;;;;4.93;4.40;;;3.80;96.40;;;;;;5090104;28;20297;-87
2022/02/10 00:51:14;;;;;;;5.18;4.10;;;3.70;96.40;;;;;;5090002;28;20310;-86
2022/02/10 00:53:45;;;;;;;4.80;4.30;;;3.70;96.40;;;;;;5089820;28;20202;-87
2022/02/10 00:56:15;;;;;;;4.38;3.97;;;3.70;96.60;;;;;;5089736;28;20218;-87
2022/02/10 00:58:45;;;;;;;5.90;4.22;;;4.10;96.60;;;;;;5089828;28;20251;-87
2022/02/10 01:07:05;;;;;;;4.90;3.80;;;3.60;96.60;;;;;;5090238;28;20268;-87
2022/02/10 01:12:30;;;;;;;4.90;4.38;;;3.50;99.90;;;;;;5088192;28;20267;-88
2022/02/10 01:31:34;;;;;;;5.07;4.43;;;4.30;95.90;;;;;;5083209;28;20198;-87
2022/02/10 01:34:01;;;;;;;4.93;4.45;;;3.70;95.60;;;;;;5089094;28;20313;-87
2022/02/10 01:36:33;;;;;;;5.07;4.28;;;3.80;95.50;;;;;;5089524;28;20281;-87
2022/02/10 01:39:00;;;;;;;6.57;5.32;;;3.80;95.30;;;;;;5073363;28;20201;-87
2022/02/10 01:58:10;;;;;;;5.53;4.28;;;3.60;95.50;;;;;;5088564;28;20194;-86
2022/02/10 02:03:27;;;;;;;4.45;3.60;;;3.60;96.00;;;;;;5088203;28;20311;-87
2022/02/10 02:06:05;;;;;;;4.13;3.33;;;3.50;95.90;;;;;;5088282;28;20199;-86
2022/02/10 02:08:46;;;;;;;4.68;3.60;;;3.60;99.90;;;;;;5088246;28;20782;-86
2022/02/10 02:14:40;;;;;;;3.42;3.22;;;3.50;94.90;;;;;;5066791;28;20214;-86
2022/02/10 02:17:08;;;;;;;6.40;3.45;;;3.50;95.00;;;;;;5084242;28;20696;-88
2022/02/10 02:19:44;;;;;;;3.28;3.00;;;3.70;95.00;;;;;;5068379;28;20200;-87
2022/02/10 02:22:24;;;;;;;4.10;3.67;;;3.40;95.00;;;;;;5073661;28;20202;-87
2022/02/10 02:24:54;;;;;;;4.40;4.00;;;3.40;95.20;;;;;;5088085;28;20230;-87
2022/02/10 02:27:21;;;;;;;4.47;3.67;;;3.30;99.90;;;;;;5087841;28;20275;-87
2022/02/10 02:30:08;;;;;;;7.82;4.72;;;3.30;95.70;;;;;;5088325;28;20290;-87
2022/02/10 02:33:00;;;;;;;4.70;3.50;;;3.30;95.80;;;;;;5088030;28;20226;-86
2022/02/10 02:35:38;;;;;;;3.83;3.45;;;3.20;95.70;;;;;;5081839;28;20202;-87
2022/02/10 02:38:35;;;;;;;5.25;4.65;;;3.60;99.90;;;;;;5088496;28;20194;-86
2022/02/10 03:06:43;;;;;;;3.97;3.38;;;;;;;;;;5041709;28;20785;-89
2022/02/10 03:09:24;;;;;;;5.68;3.53;;;3.50;99.90;;;;;;5088181;28;20209;-89
2022/02/10 03:12:15;;;;;;;5.60;4.10;;;3.40;95.20;;;;;;5087807;28;20614;-90
2022/02/10 03:14:51;;;;;;;5.03;3.80;;;3.40;99.90;;;;;;5088097;28;20995;-90
2022/02/10 03:17:42;;;;;;;3.65;3.30;;;3.40;99.90;;;;;;5087955;28;20206;-89
2022/02/10 03:20:26;;;;;;;11.73;4.03;;;3.40;95.10;;;;;;5087961;28;20206;-89
2022/02/10 04:02:18;;;;;;;4.22;3.78;;;3.70;99.90;;;;;;5080055;28;20303;-87
2022/02/10 04:07:51;;;;;;;3.45;3.17;;;3.70;93.50;;;;;;5070809;28;20207;-87
2022/02/10 04:13:33;;;;;;;4.18;3.70;;;3.70;95.90;;;;;;5071208;28;20195;-87
2022/02/10 04:16:10;;;;;;;4.28;3.63;;;3.70;94.20;;;;;;5071795;28;20211;-86
2022/02/10 04:21:50;;;;;;;5.03;3.45;;;3.90;94.40;;;;;;5030354;28;20208;-86
2022/02/10 04:24:37;;;;;;;3.30;3.10;;;3.50;96.00;;;;;;5039566;28;20270;-86
2022/02/10 04:27:11;;;;;;;3.58;3.28;;;3.60;99.20;;;;;;5076555;28;20211;-86
2022/02/10 04:44:01;;;;;;;4.68;2.95;;;3.80;98.40;;;;;;5090397;28;20661;-86
2022/02/10 04:57:48;;;;;;;3.63;3.22;;;3.80;94.30;;;;;;5043127;28;20230;-86
2022/02/10 05:00:29;;;;;;;4.03;3.50;;;3.80;94.30;;;;;;5090516;28;20213;-87
2022/02/10 05:12:10;;;;;;;3.58;3.10;;;3.80;99.30;;;;;;5090157;28;20285;-87
2022/02/10 05:17:31;;;;;;;4.97;4.47;;;3.60;99.90;;;;;;5007167;28;20255;-87
2022/02/10 05:22:51;;;;;;;5.45;3.22;;;3.70;94.30;;;;;;5090229;28;20198;-87
2022/02/10 05:33:46;;;;;;;6.25;3.08;;;3.70;94.30;;;;;;5089329;28;20615;-86
2022/02/10 05:36:16;;;;;;;3.53;3.22;;;3.70;94.50;;;;;;5088728;28;20649;-86
2022/02/10 05:38:48;;;;;;;4.60;3.70;;;3.70;94.40;;;;;;5089919;28;20210;-87
2022/02/10 05:44:36;;;;;;;4.10;3.70;;;3.70;98.40;;;;;;5082919;28;20754;-82
2022/02/10 05:47:36;;;;;;;4.85;2.90;;;3.60;94.30;;;;;;5087586;28;20604;-82
2022/02/10 05:50:33;;;;;;;4.32;3.95;;;3.50;99.90;;;;;;5089271;28;20210;-82
2022/02/10 05:55:56;;;;;;;5.75;4.00;;;3.50;94.80;;;;;;5071409;28;20672;-82
2022/02/10 05:58:31;;;;;;;4.25;3.63;;;3.40;94.80;;;;;;5089365;28;20267;-83
2022/02/10 06:53:44;;;;;;;5.95;3.50;;;3.40;96.00;;;;;;5084274;28;20986;-82
2022/02/10 06:56:38;;;;;;;11.48;4.47;;;3.30;96.20;;;;;;5079545;28;20754;-82
2022/02/10 07:13:40;;;;;;;5.00;3.90;;;3.20;98.70;;;;;;5053885;28;20210;-82
2022/02/10 07:47:17;;;;;;;4.78;3.70;;;4.30;95.20;;;;;;5028867;28;20247;-82
2022/02/10 07:50:13;;;;;;;6.20;3.83;;;4.50;95.10;;;;;;5031413;28;20225;-82
2022/02/10 07:55:44;;;;;;;5.47;4.05;;;4.70;95.00;;;;;;5043786;28;20210;-82
2022/02/10 08:51:29;;;;;;;7.03;4.10;;;6.80;92.60;;;;;;5046478;28;20317;-83
2022/02/10 08:56:33;;;;;;;4.18;3.75;;;7.00;92.80;;;;;;5063214;28;20214;-83
2022/02/10 08:59:32;;;;;;;4.70;3.85;;;7.10;92.80;;;;;;5089170;28;20202;-83
2022/02/10 09:02:24;;;;;;;4.57;4.07;;;7.10;92.60;;;;;;5087786;28;20210;-83
2022/02/10 09:04:59;;;;;;;4.90;4.15;;;7.30;94.10;;;;;;5086652;28;20223;-83
2022/02/10 09:08:09;;;;;;;4.70;3.20;;;7.60;92.00;;;;;;5089628;28;20202;-83
2022/02/10 09:13:39;;;;;;;3.40;3.00;;;8.10;91.60;;;;;;5089987;28;20214;-82
2022/02/10 09:16:38;;;;;;;5.07;3.70;;;8.30;91.70;;;;;;5089365;28;20682;-83
2022/02/10 09:58:34;;;;;;;5.07;4.67;;;9.70;86.60;;;;;;5061563;28;20624;-83
2022/02/10 10:01:17;;;;;;;6.47;3.80;;;9.80;93.70;;;;;;5101339;28;20634;-83
2022/02/10 10:03:55;;;;;;;6.27;3.70;;;9.80;93.80;;;;;;5104282;28;20650;-83
2022/02/10 10:06:42;;;;;;;8.90;3.87;;;9.70;86.70;;;;;;5084806;28;20695;-83
2022/02/10 10:09:24;;;;;;;5.70;3.77;;;10.10;87.30;;;;;;5086980;28;20665;-83
2022/02/10 10:12:23;;;;;;;4.37;3.43;;;9.80;85.10;;;;;;5085193;28;20632;-84
2022/02/10 10:15:22;;;;;;;6.00;4.30;;;9.90;85.90;;;;;;5114448;28;20686;-83
2022/02/10 10:18:25;;;;;;;3.80;3.23;;;10.00;87.80;;;;;;5113773;28;20625;-83
2022/02/10 10:21:13;;;;;;;6.60;3.73;;;10.00;88.50;;;;;;5105502;27;20653;-82
2022/02/10 10:27:12;;;;;;;4.67;4.13;;;9.80;93.00;;;;;;5073172;28;20639;-83
2022/02/10 10:49:54;;;;;;;5.30;3.33;;;10.40;93.00;;;;;;5107708;28;20602;-83
2022/02/10 10:52:48;;;;;;;4.53;4.13;;;10.30;85.20;;;;;;5105334;28;20986;-83
2022/02/10 10:58:10;;;;;;;7.70;4.70;;;10.30;85.00;;;;;;5102833;28;20627;-82
2022/02/10 11:00:56;;;;;;;7.70;4.20;;;10.30;85.70;;;;;;5091368;28;21277;-83
2022/02/10 11:03:51;;;;;;;5.53;5.00;;;10.30;88.20;;;;;;5100004;28;20674;-83
2022/02/10 11:38:26;;;;;;;5.40;4.50;;;11.10;84.20;;;;;;5098065;28;21235;-84
2022/02/10 11:44:13;;;;;;;9.60;5.27;;;11.10;82.90;;;;;;5077566;28;20682;-84
2022/02/10 11:47:37;;;;;;;6.97;4.57;;;11.10;83.60;;;;;;5095292;28;20631;-83
2022/02/10 13:23:31;;;;;;;10.03;6.60;;;9.30;92.10;;;;;;5107903;28;20725;-84
2022/02/10 13:49:39;;;;;;;7.80;7.00;;;8.90;97.80;;;;;;5117115;27;20632;-85
2022/02/10 14:14:27;;;;;;;8.77;7.37;;;9.00;96.60;;;;;;5033302;28;20751;-85
2022/02/10 14:16:58;;;;;;;11.43;7.10;;;8.80;92.70;;;;;;5079600;28;20716;-85
2022/02/10 14:19:37;;;;;;;11.80;7.60;;;8.50;99.20;;;;;;5093174;28;20631;-85
2022/02/10 14:22:10;;;;;;;11.00;8.67;;;8.20;99.90;;;;;;5101224;28;20617;-85
2022/02/10 14:27:24;;;;;;;13.20;7.03;;;8.20;94.50;;;;;;5103614;28;20716;-85
2022/02/10 14:29:51;;;;;;;10.40;7.77;;;8.10;94.90;;;;;;5103798;28;20624;-85
2022/02/10 14:32:23;;;;;;;9.30;8.30;;;7.80;97.40;;;;;;5102848;28;20780;-85
2022/02/10 14:34:53;;;;;;;9.50;7.37;;;8.00;97.10;;;;;;5102777;28;20668;-85
2022/02/10 14:37:33;;;;;;;17.93;7.80;;;7.90;95.40;;;;;;5085014;28;20637;-85
2022/02/10 14:40:12;;;;;;;17.10;7.97;;;7.90;99.90;;;;;;5087500;28;20622;-85
2022/02/10 14:43:11;;;;;;;9.50;6.90;;;7.90;95.80;;;;;;5104206;28;20619;-85
2022/02/10 15:36:10;;;;;;;6.28;4.45;;;8.00;92.70;;;;;;5085407;27;20226;-85
2022/02/10 16:12:49;;;;;;;3.60;3.00;;;7.90;92.00;;;;;;5097010;28;20236;-85
2022/02/10 16:17:38;;;;;;;4.30;3.88;;;7.70;91.90;;;;;;5069416;28;20195;-85
2022/02/10 16:20:08;;;;;;;4.63;4.13;;;7.50;91.80;;;;;;5086127;28;20190;-85
2022/02/10 16:22:47;;;;;;;7.93;3.72;;;7.40;91.40;;;;;;5092627;28;20252;-86
2022/02/10 16:25:17;;;;;;;5.18;3.45;;;7.50;91.80;;;;;;5093096;28;20199;-85
2022/02/10 16:27:49;;;;;;;6.38;3.67;;;7.50;97.10;;;;;;5089392;28;20191;-85
2022/02/10 16:30:18;;;;;;;5.95;3.97;;;7.30;91.50;;;;;;5089416;28;20211;-85
2022/02/10 16:32:45;;;;;;;6.38;4.22;;;;;;;;;;5104112;28;20202;-85
2022/02/10 16:35:13;;;;;;;4.75;4.05;;;7.20;98.20;;;;;;5103394;28;20213;-85
2022/02/10 16:37:43;;;;;;;8.18;5.15;;;7.20;92.70;;;;;;5109937;28;20230;-85
2022/02/10 16:40:12;;;;;;;6.38;5.05;;;7.00;95.50;;;;;;5085814;28;20579;-85
2022/02/10 16:42:38;;;;;;;7.63;4.30;;;7.10;92.70;;;;;;5098497;28;20665;-85
2022/02/10 16:45:06;;;;;;;7.45;4.63;;;7.20;92.40;;;;;;5089602;28;20304;-84
2022/02/10 16:47:33;;;;;;;8.43;4.63;;;7.20;92.50;;;;;;5109207;28;20276;-85
2022/02/10 16:50:00;;;;;;;4.53;3.83;;;7.20;96.90;;;;;;5107257;28;20198;-85
2022/02/10 16:52:35;;;;;;;4.88;3.47;;;7.20;91.70;;;;;;5105770;28;20199;-85
2022/02/10 16:55:12;;;;;;;5.10;3.45;;;7.20;96.10;;;;;;5107016;28;20230;-85
2022/02/10 16:57:47;;;;;;;4.35;3.75;;;7.10;91.00;;;;;;5104830;28;20275;-85
2022/02/10 17:00:35;;;;;;;6.18;3.53;;;7.10;91.00;;;;;;5088059;28;20637;-85
2022/02/10 17:03:17;;;;;;;7.55;3.92;;;7.10;91.10;;;;;;5088535;28;20613;-85
2022/02/10 17:05:57;;;;;;;9.43;4.00;;;;;;;;;;5080138;28;20290;-85
2022/02/10 17:14:09;;;;;;;3.95;3.65;;;7.00;90.70;;;;;;5090704;28;20226;-85
2022/02/10 17:19:33;;;;;;;5.00;3.70;;;6.80;96.40;;;;;;5056397;28;20215;-85
2022/02/10 17:27:36;;;;;;;4.75;3.20;;;7.00;90.90;;;;;;5088090;28;20218;-85
2022/02/10 17:33:05;;;;;;;3.10;2.83;;;6.90;96.00;;;;;;5061736;28;20214;-86
2022/02/10 17:35:49;;;;;;;4.15;3.80;;;7.00;91.20;;;;;;5089458;28;20202;-85
2022/02/10 17:41:32;;;;;;;4.10;3.40;;;6.90;91.00;;;;;;5090913;28;20259;-85
2022/02/10 17:44:16;;;;;;;4.10;3.38;;;;;;;;;;5086588;28;20249;-86
2022/02/10 17:46:56;;;;;;;7.93;4.18;;;6.80;91.00;;;;;;5092066;28;20200;-86
2022/02/10 17:52:16;;;;;;;6.53;4.20;;;;;;;;;;5024239;28;20216;-87
2022/02/10 17:54:44;;;;;;;6.30;4.20;;;7.50;96.50;;;;;;5078160;28;20249;-85
2022/02/10 17:57:14;;;;;;;6.50;4.88;;;6.90;91.90;;;;;;5099036;28;20226;-86
2022/02/10 17:59:41;;;;;;;6.78;4.22;;;6.90;91.60;;;;;;5097499;28;20202;-85
2022/02/10 18:02:09;;;;;;;4.18;3.80;;;6.90;96.80;;;;;;5089182;28;20282;-85
2022/02/10 18:04:36;;;;;;;4.18;3.70;;;7.00;97.30;;;;;;5085888;28;20206;-85
2022/02/10 18:07:04;;;;;;;4.72;3.58;;;6.90;97.60;;;;;;5100199;28;20267;-85
2022/02/10 18:10:00;;;;;;;5.53;4.10;;;7.00;93.60;;;;;;5102856;28;20202;-86
2022/02/10 18:15:16;;;;;;;3.90;3.20;;;6.70;93.50;;;;;;5068276;28;20238;-86
2022/02/10 18:17:48;;;;;;;4.05;3.33;;;6.80;91.70;;;;;;5068195;28;20261;-85
2022/02/10 18:20:20;;;;;;;3.38;3.08;;;6.70;91.80;;;;;;5099357;28;20277;-85
2022/02/10 18:22:58;;;;;;;3.30;3.03;;;6.70;92.00;;;;;;5091544;28;20281;-85
2022/02/10 18:28:25;;;;;;;3.55;3.10;;;6.70;91.90;;;;;;5090675;28;20202;-86
2022/02/10 19:07:08;;;;;;;4.05;2.70;;;6.50;97.60;;;;;;5092131;28;20210;-85
2022/02/10 19:09:38;;;;;;;4.70;3.28;;;6.40;98.30;;;;;;5102102;28;20202;-85
2022/02/10 19:12:15;;;;;;;4.25;3.20;;;6.70;98.50;;;;;;5101293;28;20201;-85
2022/02/10 19:14:46;;;;;;;4.35;3.63;;;6.60;93.20;;;;;;5108744;28;20703;-85
2022/02/10 19:17:15;;;;;;;3.95;3.47;;;6.60;93.10;;;;;;5110766;28;20378;-85
2022/02/10 19:19:42;;;;;;;3.15;2.92;;;6.60;97.90;;;;;;5108661;28;20194;-85
2022/02/10 19:22:08;;;;;;;4.15;3.70;;;6.60;98.80;;;;;;5091769;28;20283;-85
2022/02/10 19:24:35;;;;;;;4.85;3.75;;;6.40;93.00;;;;;;5095294;28;20194;-84
2022/02/10 19:27:02;;;;;;;4.28;3.85;;;6.50;93.20;;;;;;5095668;28;20194;-85
2022/02/10 19:29:30;;;;;;;3.60;2.83;;;6.50;93.20;;;;;;5105954;28;20260;-85
2022/02/10 19:31:57;;;;;;;3.70;3.17;;;6.50;93.30;;;;;;5091347;28;20195;-85
2022/02/10 19:34:31;;;;;;;4.25;3.53;;;6.60;93.80;;;;;;5109011;28;20218;-85
2022/02/10 19:36:59;;;;;;;3.55;3.25;;;;;;;;;;5090471;28;20221;-85
2022/02/10 19:39:26;;;;;;;4.38;3.65;;;6.40;98.50;;;;;;5091481;28;20630;-85
2022/02/10 19:41:54;;;;;;;4.95;3.80;;;6.50;93.70;;;;;;5092537;27;20742;-85
2022/02/10 19:44:21;;;;;;;5.82;3.50;;;6.50;93.80;;;;;;5098622;28;20205;-85
2022/02/10 19:46:49;;;;;;;3.50;3.20;;;;;;;;;;5104167;28;20725;-85
2022/02/10 19:49:19;;;;;;;4.53;3.60;;;6.50;93.30;;;;;;5110400;28;20205;-85
2022/02/10 19:51:49;;;;;;;8.02;4.10;;;6.10;98.50;;;;;;5090157;28;20744;-85
2022/02/10 19:54:23;;;;;;;5.80;4.15;;;6.50;93.60;;;;;;5096863;28;20743;-85
2022/02/10 19:56:52;;;;;;;3.95;3.55;;;6.10;99.70;;;;;;5108020;28;20303;-86
2022/02/10 19:59:22;;;;;;;5.18;4.72;;;6.50;95.80;;;;;;5106118;28;20202;-85
2022/02/10 20:01:50;;;;;;;5.57;4.43;;;6.40;93.90;;;;;;5093929;28;20201;-85
2022/02/10 20:04:19;;;;;;;5.40;4.20;;;6.40;98.80;;;;;;5104775;28;20664;-85
2022/02/10 20:06:47;;;;;;;5.82;4.47;;;6.30;94.30;;;;;;5107671;28;20204;-85
2022/02/10 20:09:16;;;;;;;4.40;4.00;;;6.30;94.20;;;;;;5093999;28;20198;-85
2022/02/10 20:11:43;;;;;;;4.90;4.15;;;6.30;94.30;;;;;;5103532;28;20190;-85
2022/02/10 20:14:10;;;;;;;5.18;3.75;;;;;;;;;;5103768;28;20226;-85
2022/02/10 20:16:37;;;;;;;6.50;4.90;;;6.30;94.10;;;;;;5089826;28;20293;-85
2022/02/10 20:19:08;;;;;;;6.60;4.50;;;6.40;98.10;;;;;;5103818;28;20198;-85
2022/02/10 20:21:35;;;;;;;4.88;3.80;;;6.00;99.30;;;;;;5102459;28;20193;-85
2022/02/10 20:24:04;;;;;;;5.63;3.78;;;6.10;94.50;;;;;;5108831;28;20602;-85
2022/02/10 20:26:31;;;;;;;7.95;3.83;;;5.90;99.90;;;;;;5093837;28;20198;-85
2022/02/10 20:28:58;;;;;;;5.43;4.93;;;6.10;94.90;;;;;;5090496;28;20319;-85
2022/02/10 20:31:25;;;;;;;4.93;4.43;;;6.20;94.80;;;;;;5099670;28;20284;-85
2022/02/10 20:33:52;;;;;;;6.03;4.32;;;6.20;95.10;;;;;;5108937;28;20205;-85
2022/02/10 20:36:19;;;;;;;5.05;4.40;;;6.20;95.00;;;;;;5099373;28;20190;-85
2022/02/10 20:38:49;;;;;;;4.93;4.50;;;6.20;95.10;;;;;;5092774;28;20196;-85
2022/02/10 20:41:19;;;;;;;5.30;4.38;;;6.20;95.00;;;;;;5104860;28;20194;-85
2022/02/10 20:43:48;;;;;;;5.25;4.72;;;6.20;95.00;;;;;;5108378;28;20186;-85
2022/02/10 20:46:17;;;;;;;6.32;4.97;;;6.30;95.10;;;;;;5094081;28;20198;-85
2022/02/10 20:48:45;;;;;;;6.13;4.47;;;6.30;94.90;;;;;;5101044;28;20190;-86
2022/02/10 20:51:15;;;;;;;5.30;4.20;;;6.10;99.90;;;;;;5092652;28;20665;-85
2022/02/10 20:53:45;;;;;;;5.30;4.20;;;7.90;99.90;;;;;;5108874;28;20543;-85
2022/02/10 20:56:13;;;;;;;6.22;3.90;;;6.30;95.30;;;;;;5090092;28;20253;-85
2022/02/10 20:58:42;;;;;;;6.10;4.85;;;6.20;95.10;;;;;;5099252;28;20244;-85
2022/02/10 21:01:13;;;;;;;8.38;4.88;;;6.20;95.20;;;;;;5088012;28;20191;-85
2022/02/10 21:03:41;;;;;;;8.07;4.38;;;6.30;95.20;;;;;;5078348;28;20200;-85
2022/02/10 21:06:15;;;;;;;6.00;3.85;;;6.40;99.90;;;;;;5067585;28;20248;-85
2022/02/10 21:08:50;;;;;;;5.18;4.68;;;6.50;99.90;;;;;;5069719;28;20209;-85
2022/02/10 21:11:18;;;;;;;5.43;4.05;;;6.30;95.10;;;;;;5069001;28;20207;-85
2022/02/10 21:13:47;;;;;;;5.88;4.90;;;6.30;95.40;;;;;;5079184;28;20222;-83
2022/02/10 21:16:13;;;;;;;5.63;5.05;;;6.30;95.40;;;;;;5068780;28;20228;-83
2022/02/10 21:18:42;;;;;;;5.68;5.10;;;6.30;99.90;;;;;;5070592;28;20227;-86
2022/02/10 21:21:14;;;;;;;6.70;4.75;;;6.30;95.40;;;;;;5081059;28;20660;-86
2022/02/10 21:23:49;;;;;;;5.85;4.53;;;6.30;95.90;;;;;;5080006;28;20191;-86
2022/02/10 21:26:19;;;;;;;11.05;5.25;;;;;;;;;;5081102;28;20194;-86
2022/02/10 21:28:49;;;;;;;11.25;7.43;;;6.30;95.40;;;;;;5078700;28;20297;-88
2022/02/10 21:31:16;;;;;;;9.55;6.75;;;6.30;99.90;;;;;;5087722;28;20287;-87
2022/02/10 21:33:57;;;;;;;9.75;6.90;;;6.30;95.40;;;;;;5086900;28;20259;-87
2022/02/10 21:36:46;;;;;;;10.88;7.28;;;6.40;99.90;;;;;;5087221;28;20565;-88
2022/02/10 21:39:34;;;;;;;7.43;5.45;;;6.40;95.50;;;;;;5092202;28;20201;-87
2022/02/10 22:07:26;;;;;;;5.30;4.60;;;6.50;95.30;;;;;;5071266;28;20315;-87
2022/02/10 22:09:49;;;;;;;12.18;4.50;;;6.20;99.90;;;;;;5107446;28;20206;-86
2022/02/10 22:20:46;;;;;;;7.60;4.63;;;6.60;95.00;;;;;;5104040;28;20302;-87
2022/02/10 22:23:20;;;;;;;6.43;4.40;;;6.20;94.90;;;;;;5098215;28;20267;-86
2022/02/10 22:25:48;;;;;;;5.65;5.15;;;6.50;95.00;;;;;;5104291;28;20254;-87
2022/02/10 22:28:28;;;;;;;5.80;4.13;;;6.60;95.50;;;;;;5107932;28;20196;-87
2022/02/10 22:31:09;;;;;;;5.05;3.97;;;6.60;94.80;;;;;;5091429;28;20221;-87
2022/02/10 22:33:50;;;;;;;5.25;4.30;;;6.70;97.50;;;;;;5110299;28;20667;-86
2022/02/10 22:36:19;;;;;;;5.00;3.97;;;6.60;99.90;;;;;;5098044;28;20226;-87
2022/02/10 22:38:48;;;;;;;6.18;4.60;;;6.50;95.30;;;;;;5105480;28;20194;-87
2022/02/10 22:41:16;;;;;;;4.45;3.75;;;6.60;95.40;;;;;;5092072;28;20195;-87
2022/02/10 22:43:46;;;;;;;5.43;4.57;;;6.50;95.10;;;;;;5091325;28;20187;-86
2022/02/10 22:46:14;;;;;;;4.85;4.18;;;6.50;95.30;;;;;;5107858;28;20235;-87
2022/02/10 22:48:44;;;;;;;7.18;5.03;;;6.60;95.20;;;;;;5095812;28;20223;-87
2022/02/10 22:51:12;;;;;;;4.55;4.20;;;6.40;99.90;;;;;;5103622;28;20284;-87
2022/02/10 22:53:39;;;;;;;5.43;4.82;;;6.50;95.20;;;;;;5110986;28;20686;-87
2022/02/10 22:56:08;;;;;;;12.65;5.30;;;6.60;95.30;;;;;;5107080;28;20213;-87
2022/02/10 22:58:38;;;;;;;7.93;5.13;;;6.60;95.40;;;;;;5108950;28;20194;-87
2022/02/10 23:01:05;;;;;;;7.65;4.82;;;6.50;95.50;;;;;;5102626;28;20276;-86
2022/02/10 23:03:32;;;;;;;5.00;4.50;;;6.50;95.50;;;;;;5094762;28;20199;-87
2022/02/10 23:06:01;;;;;;;9.25;5.32;;;6.30;97.80;;;;;;5109256;28;20747;-87
2022/02/10 23:08:28;;;;;;;9.52;4.65;;;;;;;;;;5098824;28;20202;-87
2022/02/10 23:10:57;;;;;;;5.85;5.00;;;6.50;95.80;;;;;;5103818;28;20251;-86
2022/02/10 23:13:27;;;;;;;5.82;5.20;;;6.60;99.90;;;;;;5099709;28;20287;-86
2022/02/10 23:15:55;;;;;;;13.52;6.45;;;6.40;95.80;;;;;;5096836;28;20233;-87
2022/02/10 23:18:24;;;;;;;6.00;4.80;;;6.40;96.10;;;;;;5105752;28;20191;-86
2022/02/10 23:20:53;;;;;;;6.32;4.80;;;6.40;96.10;;;;;;5103326;28;20241;-86
2022/02/10 23:23:23;;;;;;;7.60;6.15;;;6.40;96.30;;;;;;5108763;28;20205;-87
2022/02/10 23:25:53;;;;;;;6.30;5.50;;;6.40;96.10;;;;;;5070180;28;20545;-87
2022/02/10 23:28:23;;;;;;;6.15;5.13;;;6.40;96.20;;;;;;5091051;28;20218;-87
2022/02/10 23:30:53;;;;;;;5.95;4.88;;;6.40;96.20;;;;;;5106338;28;20199;-87
2022/02/10 23:33:26;;;;;;;10.07;6.15;;;6.40;96.10;;;;;;5074343;28;20700;-87
2022/02/10 23:38:46;;;;;;;5.35;4.60;;;6.40;96.50;;;;;;5092402;28;20324;-87
2022/02/10 23:44:09;;;;;;;7.25;5.38;;;6.70;99.90;;;;;;5061269;28;20637;-87
2022/02/10 23:46:35;;;;;;;6.75;5.68;;;6.40;99.90;;;;;;5103330;28;20202;-87
2022/02/10 23:49:02;;;;;;;6.03;5.43;;;6.40;96.70;;;;;;5089926;28;20199;-87
2022/02/10 23:51:34;;;;;;;6.45;5.22;;;6.40;96.80;;;;;;5110159;28;20197;-87
2022/02/10 23:54:02;;;;;;;6.90;6.20;;;6.40;96.80;;;;;;5100838;28;20202;-87
2022/02/10 23:56:34;;;;;;;5.70;4.88;;;6.40;96.80;;;;;;5069632;28;20316;-87
2022/02/10 23:59:09;;;;;;;8.60;6.00;;;;;;;;;;5082343;28;20197;-87
